sensor_id;sensor_type;location;lat;lon;timestamp;temperature;humidity
3560;DHT22;1794;48.804;9.156;2022-07-01T00:01:47;14.30;99.90
3560;DHT22;1794;48.804;9.156;2022-07-01T00:04:16;14.50;99.90
3560;DHT22;1794;48.804;9.156;2022-07-01T00:06:43;14.60;99.90
3560;DHT22;1794;48.804;9.156;2022-07-01T00:09:09;14.90;99.90
3560;DHT22;1794;48.804;9.156;2022-07-01T00:11:36;14.60;99.90
3560;DHT22;1794;48.804;9.156;2022-07-01T00:14:03;14.50;99.90
3560;DHT22;1794;48.804;9.156;2022-07-01T00:16:30;14.40;99.90
3560;DHT22;1794;48.804;9.156;2022-07-01T00:18:57;14.30;99.90
3560;DHT22;1794;48.804;9.156;2022-07-01T00:21:25;14.30;99.90
3560;DHT22;1794;48.804;9.156;2022-07-01T00:23:51;14.40;99.90
3560;DHT22;1794;48.804;9.156;2022-07-01T00:26:18;14.40;99.90
3560;DHT22;1794;48.804;9.156;2022-07-01T00:28:45;14.30;99.90
3560;DHT22;1794;48.804;9.156;2022-07-01T00:31:12;14.20;99.90
3560;DHT22;1794;48.804;9.156;2022-07-01T00:33:38;14.30;99.90
3560;DHT22;1794;48.804;9.156;2022-07-01T00:36:05;14.20;99.90
3560;DHT22;1794;48.804;9.156;2022-07-01T00:38:33;14.10;99.90
3560;DHT22;1794;48.804;9.156;2022-07-01T00:41:01;14.10;99.90
3560;DHT22;1794;48.804;9.156;2022-07-01T00:43:27;14.30;99.90
3560;DHT22;1794;48.804;9.156;2022-07-01T00:46:01;14.10;99.90
3560;DHT22;1794;48.804;9.156;2022-07-01T00:48:27;14.00;99.90
3560;DHT22;1794;48.804;9.156;2022-07-01T00:50:54;13.90;99.90
3560;DHT22;1794;48.804;9.156;2022-07-01T00:53:21;13.90;99.90
3560;DHT22;1794;48.804;9.156;2022-07-01T00:55:49;13.90;99.90
3560;DHT22;1794;48.804;9.156;2022-07-01T00:58:16;14.10;99.90
3560;DHT22;1794;48.804;9.156;2022-07-01T01:00:43;14.10;99.90
3560;DHT22;1794;48.804;9.156;2022-07-01T01:03:09;13.90;99.90
3560;DHT22;1794;48.804;9.156;2022-07-01T01:05:37;14.10;99.90
3560;DHT22;1794;48.804;9.156;2022-07-01T01:08:06;14.10;99.90
3560;DHT22;1794;48.804;9.156;2022-07-01T01:10:35;14.00;99.90
3560;DHT22;1794;48.804;9.156;2022-07-01T01:13:04;14.10;99.90
3560;DHT22;1794;48.804;9.156;2022-07-01T01:15:31;14.20;99.90
3560;DHT22;1794;48.804;9.156;2022-07-01T01:17:58;14.30;99.90
3560;DHT22;1794;48.804;9.156;2022-07-01T01:22:54;14.40;99.90
3560;DHT22;1794;48.804;9.156;2022-07-01T01:25:21;14.30;99.90
3560;DHT22;1794;48.804;9.156;2022-07-01T01:27:48;14.30;99.90
3560;DHT22;1794;48.804;9.156;2022-07-01T01:30:14;14.20;99.90
3560;DHT22;1794;48.804;9.156;2022-07-01T01:32:41;14.30;99.90
3560;DHT22;1794;48.804;9.156;2022-07-01T01:35:09;14.10;99.90
3560;DHT22;1794;48.804;9.156;2022-07-01T01:37:36;14.00;99.90
3560;DHT22;1794;48.804;9.156;2022-07-01T01:40:06;14.20;99.90
3560;DHT22;1794;48.804;9.156;2022-07-01T01:42:33;14.20;99.90
3560;DHT22;1794;48.804;9.156;2022-07-01T01:45:01;14.30;99.90
3560;DHT22;1794;48.804;9.156;2022-07-01T01:47:28;14.20;99.90
3560;DHT22;1794;48.804;9.156;2022-07-01T01:49:55;14.20;99.90
3560;DHT22;1794;48.804;9.156;2022-07-01T01:52:22;14.20;99.90
3560;DHT22;1794;48.804;9.156;2022-07-01T01:54:49;14.10;99.90
3560;DHT22;1794;48.804;9.156;2022-07-01T01:57:17;14.00;99.90
3560;DHT22;1794;48.804;9.156;2022-07-01T01:59:43;14.00;99.90
3560;DHT22;1794;48.804;9.156;2022-07-01T02:02:10;14.20;99.90
3560;DHT22;1794;48.804;9.156;2022-07-01T02:04:37;14.20;99.90
3560;DHT22;1794;48.804;9.156;2022-07-01T02:07:03;14.20;99.90
3560;DHT22;1794;48.804;9.156;2022-07-01T02:09:32;14.20;99.90
3560;DHT22;1794;48.804;9.156;2022-07-01T02:11:59;14.10;99.90
3560;DHT22;1794;48.804;9.156;2022-07-01T02:14:27;14.20;99.90
3560;DHT22;1794;48.804;9.156;2022-07-01T02:16:54;14.30;99.90
3560;DHT22;1794;48.804;9.156;2022-07-01T02:19:20;14.30;99.90
3560;DHT22;1794;48.804;9.156;2022-07-01T02:21:47;14.30;99.90
3560;DHT22;1794;48.804;9.156;2022-07-01T02:24:16;14.40;99.90
3560;DHT22;1794;48.804;9.156;2022-07-01T02:26:44;14.30;99.90
3560;DHT22;1794;48.804;9.156;2022-07-01T02:29:10;14.30;99.90
3560;DHT22;1794;48.804;9.156;2022-07-01T02:31:38;14.10;99.90
3560;DHT22;1794;48.804;9.156;2022-07-01T02:34:05;14.20;99.90
3560;DHT22;1794;48.804;9.156;2022-07-01T02:36:32;13.90;99.90
3560;DHT22;1794;48.804;9.156;2022-07-01T02:38:59;13.80;99.90
3560;DHT22;1794;48.804;9.156;2022-07-01T02:41:26;13.90;99.90
3560;DHT22;1794;48.804;9.156;2022-07-01T02:43:52;13.90;99.90
3560;DHT22;1794;48.804;9.156;2022-07-01T02:46:19;13.90;99.90
3560;DHT22;1794;48.804;9.156;2022-07-01T02:48:47;13.80;99.90
3560;DHT22;1794;48.804;9.156;2022-07-01T02:51:14;13.80;99.90
3560;DHT22;1794;48.804;9.156;2022-07-01T02:53:41;13.80;99.90
3560;DHT22;1794;48.804;9.156;2022-07-01T02:56:07;13.80;99.90
3560;DHT22;1794;48.804;9.156;2022-07-01T02:58:34;13.70;99.90
3560;DHT22;1794;48.804;9.156;2022-07-01T03:01:01;13.70;99.90
3560;DHT22;1794;48.804;9.156;2022-07-01T03:03:27;13.90;99.90
3560;DHT22;1794;48.804;9.156;2022-07-01T03:05:56;13.70;99.90
3560;DHT22;1794;48.804;9.156;2022-07-01T03:08:23;13.80;99.90
3560;DHT22;1794;48.804;9.156;2022-07-01T03:10:50;13.80;99.90
3560;DHT22;1794;48.804;9.156;2022-07-01T03:13:17;13.90;99.90
3560;DHT22;1794;48.804;9.156;2022-07-01T03:15:44;13.70;99.90
3560;DHT22;1794;48.804;9.156;2022-07-01T03:18:11;13.80;99.90
3560;DHT22;1794;48.804;9.156;2022-07-01T03:20:38;13.70;99.90
3560;DHT22;1794;48.804;9.156;2022-07-01T03:23:06;13.70;99.90
3560;DHT22;1794;48.804;9.156;2022-07-01T03:25:33;13.70;99.90
3560;DHT22;1794;48.804;9.156;2022-07-01T03:28:01;13.80;99.90
3560;DHT22;1794;48.804;9.156;2022-07-01T03:30:29;13.70;99.90
3560;DHT22;1794;48.804;9.156;2022-07-01T03:32:56;13.70;99.90
3560;DHT22;1794;48.804;9.156;2022-07-01T03:35:23;13.90;99.90
3560;DHT22;1794;48.804;9.156;2022-07-01T03:38:02;13.80;99.90
3560;DHT22;1794;48.804;9.156;2022-07-01T03:40:31;13.80;99.90
3560;DHT22;1794;48.804;9.156;2022-07-01T03:42:58;13.80;99.90
3560;DHT22;1794;48.804;9.156;2022-07-01T03:45:24;13.80;99.90
3560;DHT22;1794;48.804;9.156;2022-07-01T03:47:51;13.80;99.90
3560;DHT22;1794;48.804;9.156;2022-07-01T03:50:21;13.80;99.90
3560;DHT22;1794;48.804;9.156;2022-07-01T03:52:48;13.90;99.90
3560;DHT22;1794;48.804;9.156;2022-07-01T03:55:36;13.80;99.90
3560;DHT22;1794;48.804;9.156;2022-07-01T03:58:02;13.80;99.90
3560;DHT22;1794;48.804;9.156;2022-07-01T04:00:30;13.90;99.90
3560;DHT22;1794;48.804;9.156;2022-07-01T04:02:59;13.80;99.90
3560;DHT22;1794;48.804;9.156;2022-07-01T04:05:26;13.80;99.90
3560;DHT22;1794;48.804;9.156;2022-07-01T04:07:52;13.80;99.90
3560;DHT22;1794;48.804;9.156;2022-07-01T04:10:19;13.70;99.90
3560;DHT22;1794;48.804;9.156;2022-07-01T04:12:48;13.60;99.90
3560;DHT22;1794;48.804;9.156;2022-07-01T04:15:14;13.60;99.90
3560;DHT22;1794;48.804;9.156;2022-07-01T04:17:43;13.60;99.90
3560;DHT22;1794;48.804;9.156;2022-07-01T04:20:10;13.60;99.90
3560;DHT22;1794;48.804;9.156;2022-07-01T04:22:37;13.60;99.90
3560;DHT22;1794;48.804;9.156;2022-07-01T04:25:03;13.70;99.90
3560;DHT22;1794;48.804;9.156;2022-07-01T04:27:31;13.60;99.90
3560;DHT22;1794;48.804;9.156;2022-07-01T04:29:59;13.50;99.90
3560;DHT22;1794;48.804;9.156;2022-07-01T04:32:27;13.50;99.90
3560;DHT22;1794;48.804;9.156;2022-07-01T04:34:55;13.50;99.90
3560;DHT22;1794;48.804;9.156;2022-07-01T04:37:22;13.50;99.90
3560;DHT22;1794;48.804;9.156;2022-07-01T04:39:49;13.50;99.90
3560;DHT22;1794;48.804;9.156;2022-07-01T04:42:16;13.60;99.90
3560;DHT22;1794;48.804;9.156;2022-07-01T04:44:43;13.60;99.90
3560;DHT22;1794;48.804;9.156;2022-07-01T04:47:11;13.60;99.90
3560;DHT22;1794;48.804;9.156;2022-07-01T04:49:38;13.80;99.90
3560;DHT22;1794;48.804;9.156;2022-07-01T04:52:05;13.60;99.90
3560;DHT22;1794;48.804;9.156;2022-07-01T04:54:32;13.70;99.90
3560;DHT22;1794;48.804;9.156;2022-07-01T04:56:58;13.70;99.90
3560;DHT22;1794;48.804;9.156;2022-07-01T04:59:25;13.60;99.90
3560;DHT22;1794;48.804;9.156;2022-07-01T05:01:52;13.50;99.90
3560;DHT22;1794;48.804;9.156;2022-07-01T05:04:20;13.60;99.90
3560;DHT22;1794;48.804;9.156;2022-07-01T05:06:47;13.80;99.90
3560;DHT22;1794;48.804;9.156;2022-07-01T05:09:14;13.80;99.90
3560;DHT22;1794;48.804;9.156;2022-07-01T05:11:40;13.70;99.90
3560;DHT22;1794;48.804;9.156;2022-07-01T05:14:08;13.90;99.90
3560;DHT22;1794;48.804;9.156;2022-07-01T05:16:35;13.80;99.90
3560;DHT22;1794;48.804;9.156;2022-07-01T05:19:02;13.90;99.90
3560;DHT22;1794;48.804;9.156;2022-07-01T05:21:48;13.70;99.90
3560;DHT22;1794;48.804;9.156;2022-07-01T05:24:26;13.50;99.90
3560;DHT22;1794;48.804;9.156;2022-07-01T05:26:54;13.70;99.90
3560;DHT22;1794;48.804;9.156;2022-07-01T05:29:21;13.90;99.90
3560;DHT22;1794;48.804;9.156;2022-07-01T05:31:47;13.90;99.90
3560;DHT22;1794;48.804;9.156;2022-07-01T05:34:14;13.90;99.90
3560;DHT22;1794;48.804;9.156;2022-07-01T05:36:41;13.90;99.90
3560;DHT22;1794;48.804;9.156;2022-07-01T05:39:09;13.80;99.90
3560;DHT22;1794;48.804;9.156;2022-07-01T05:41:37;14.10;99.90
3560;DHT22;1794;48.804;9.156;2022-07-01T05:44:04;14.00;99.90
3560;DHT22;1794;48.804;9.156;2022-07-01T05:46:31;14.20;99.90
3560;DHT22;1794;48.804;9.156;2022-07-01T05:48:57;14.20;99.90
3560;DHT22;1794;48.804;9.156;2022-07-01T05:51:24;14.30;99.90
3560;DHT22;1794;48.804;9.156;2022-07-01T05:53:51;14.10;99.90
3560;DHT22;1794;48.804;9.156;2022-07-01T05:56:19;14.10;99.90
3560;DHT22;1794;48.804;9.156;2022-07-01T05:58:46;14.10;99.90
3560;DHT22;1794;48.804;9.156;2022-07-01T06:01:14;14.30;99.90
3560;DHT22;1794;48.804;9.156;2022-07-01T06:03:41;14.20;99.90
3560;DHT22;1794;48.804;9.156;2022-07-01T06:06:08;14.40;99.90
3560;DHT22;1794;48.804;9.156;2022-07-01T06:08:34;14.40;99.90
3560;DHT22;1794;48.804;9.156;2022-07-01T06:11:01;14.40;99.90
3560;DHT22;1794;48.804;9.156;2022-07-01T06:13:30;14.40;99.90
3560;DHT22;1794;48.804;9.156;2022-07-01T06:15:57;14.50;99.90
3560;DHT22;1794;48.804;9.156;2022-07-01T06:18:25;14.50;99.90
3560;DHT22;1794;48.804;9.156;2022-07-01T06:20:52;14.70;99.90
3560;DHT22;1794;48.804;9.156;2022-07-01T06:23:19;14.70;99.90
3560;DHT22;1794;48.804;9.156;2022-07-01T06:25:46;14.70;99.90
3560;DHT22;1794;48.804;9.156;2022-07-01T06:28:13;14.60;99.90
3560;DHT22;1794;48.804;9.156;2022-07-01T06:30:41;14.60;99.90
3560;DHT22;1794;48.804;9.156;2022-07-01T06:33:10;14.30;99.90
3560;DHT22;1794;48.804;9.156;2022-07-01T06:35:38;14.30;99.90
3560;DHT22;1794;48.804;9.156;2022-07-01T06:38:04;14.60;99.90
3560;DHT22;1794;48.804;9.156;2022-07-01T06:40:31;14.50;99.90
3560;DHT22;1794;48.804;9.156;2022-07-01T06:42:58;14.60;99.90
3560;DHT22;1794;48.804;9.156;2022-07-01T06:45:25;14.70;99.90
3560;DHT22;1794;48.804;9.156;2022-07-01T06:47:53;14.70;99.90
3560;DHT22;1794;48.804;9.156;2022-07-01T06:50:20;14.60;99.90
3560;DHT22;1794;48.804;9.156;2022-07-01T06:52:46;14.20;99.90
3560;DHT22;1794;48.804;9.156;2022-07-01T06:55:13;14.40;99.90
3560;DHT22;1794;48.804;9.156;2022-07-01T06:57:40;14.20;99.90
3560;DHT22;1794;48.804;9.156;2022-07-01T07:00:08;14.20;99.90
3560;DHT22;1794;48.804;9.156;2022-07-01T07:02:35;14.30;99.90
3560;DHT22;1794;48.804;9.156;2022-07-01T07:05:03;14.40;99.90
3560;DHT22;1794;48.804;9.156;2022-07-01T07:07:30;14.30;99.90
3560;DHT22;1794;48.804;9.156;2022-07-01T07:09:57;14.30;99.90
3560;DHT22;1794;48.804;9.156;2022-07-01T07:12:24;14.30;99.90
3560;DHT22;1794;48.804;9.156;2022-07-01T07:14:51;14.30;99.90
3560;DHT22;1794;48.804;9.156;2022-07-01T07:17:18;14.30;99.90
3560;DHT22;1794;48.804;9.156;2022-07-01T07:19:44;14.30;99.90
3560;DHT22;1794;48.804;9.156;2022-07-01T07:22:12;14.30;99.90
3560;DHT22;1794;48.804;9.156;2022-07-01T07:24:39;14.40;99.90
3560;DHT22;1794;48.804;9.156;2022-07-01T07:27:06;14.50;99.90
3560;DHT22;1794;48.804;9.156;2022-07-01T07:29:32;14.70;99.90
3560;DHT22;1794;48.804;9.156;2022-07-01T07:31:59;14.70;99.90
3560;DHT22;1794;48.804;9.156;2022-07-01T07:34:26;14.90;99.90
3560;DHT22;1794;48.804;9.156;2022-07-01T07:36:52;14.70;99.90
3560;DHT22;1794;48.804;9.156;2022-07-01T07:39:20;14.70;99.90
3560;DHT22;1794;48.804;9.156;2022-07-01T07:41:47;14.90;99.90
3560;DHT22;1794;48.804;9.156;2022-07-01T07:44:15;14.70;99.90
3560;DHT22;1794;48.804;9.156;2022-07-01T07:46:41;14.90;99.90
3560;DHT22;1794;48.804;9.156;2022-07-01T07:49:08;15.00;99.90
3560;DHT22;1794;48.804;9.156;2022-07-01T07:51:35;15.00;99.90
3560;DHT22;1794;48.804;9.156;2022-07-01T07:54:02;15.10;99.90
3560;DHT22;1794;48.804;9.156;2022-07-01T07:56:30;14.70;99.90
3560;DHT22;1794;48.804;9.156;2022-07-01T07:58:57;14.80;99.90
3560;DHT22;1794;48.804;9.156;2022-07-01T08:01:24;14.90;99.90
3560;DHT22;1794;48.804;9.156;2022-07-01T08:03:50;15.10;99.90
3560;DHT22;1794;48.804;9.156;2022-07-01T08:06:17;15.10;99.90
3560;DHT22;1794;48.804;9.156;2022-07-01T08:08:44;14.60;99.90
3560;DHT22;1794;48.804;9.156;2022-07-01T08:11:11;14.90;99.90
3560;DHT22;1794;48.804;9.156;2022-07-01T08:13:40;15.00;99.90
3560;DHT22;1794;48.804;9.156;2022-07-01T08:16:07;15.10;99.90
3560;DHT22;1794;48.804;9.156;2022-07-01T08:18:34;15.20;99.90
3560;DHT22;1794;48.804;9.156;2022-07-01T08:21:01;15.00;99.90
3560;DHT22;1794;48.804;9.156;2022-07-01T08:23:28;14.40;99.90
3560;DHT22;1794;48.804;9.156;2022-07-01T08:25:54;14.40;99.90
3560;DHT22;1794;48.804;9.156;2022-07-01T08:28:21;14.30;99.90
3560;DHT22;1794;48.804;9.156;2022-07-01T08:30:49;14.40;99.90
3560;DHT22;1794;48.804;9.156;2022-07-01T08:33:16;14.30;99.90
3560;DHT22;1794;48.804;9.156;2022-07-01T08:35:42;14.30;99.90
3560;DHT22;1794;48.804;9.156;2022-07-01T08:38:09;14.30;99.90
3560;DHT22;1794;48.804;9.156;2022-07-01T08:40:36;14.20;99.90
3560;DHT22;1794;48.804;9.156;2022-07-01T08:43:05;14.30;99.90
3560;DHT22;1794;48.804;9.156;2022-07-01T08:45:34;14.20;99.90
3560;DHT22;1794;48.804;9.156;2022-07-01T08:48:03;14.30;99.90
3560;DHT22;1794;48.804;9.156;2022-07-01T08:50:33;14.60;99.90
3560;DHT22;1794;48.804;9.156;2022-07-01T08:53:00;14.60;99.90
3560;DHT22;1794;48.804;9.156;2022-07-01T08:55:27;14.60;99.90
3560;DHT22;1794;48.804;9.156;2022-07-01T08:57:54;14.70;99.90
3560;DHT22;1794;48.804;9.156;2022-07-01T09:00:21;14.50;99.90
3560;DHT22;1794;48.804;9.156;2022-07-01T09:02:52;14.60;99.90
3560;DHT22;1794;48.804;9.156;2022-07-01T09:05:21;14.40;99.90
3560;DHT22;1794;48.804;9.156;2022-07-01T09:07:54;14.80;99.90
3560;DHT22;1794;48.804;9.156;2022-07-01T09:10:21;14.70;99.90
3560;DHT22;1794;48.804;9.156;2022-07-01T09:12:48;14.90;99.90
3560;DHT22;1794;48.804;9.156;2022-07-01T09:15:19;15.10;99.90
3560;DHT22;1794;48.804;9.156;2022-07-01T09:17:46;15.10;99.90
3560;DHT22;1794;48.804;9.156;2022-07-01T09:20:25;14.90;99.90
3560;DHT22;1794;48.804;9.156;2022-07-01T09:22:59;15.00;99.90
3560;DHT22;1794;48.804;9.156;2022-07-01T09:25:28;14.90;99.90
3560;DHT22;1794;48.804;9.156;2022-07-01T09:28:10;14.70;99.90
3560;DHT22;1794;48.804;9.156;2022-07-01T09:30:38;14.40;99.90
3560;DHT22;1794;48.804;9.156;2022-07-01T09:33:08;14.60;99.90
3560;DHT22;1794;48.804;9.156;2022-07-01T09:35:36;14.60;99.90
3560;DHT22;1794;48.804;9.156;2022-07-01T09:38:04;14.70;99.90
3560;DHT22;1794;48.804;9.156;2022-07-01T09:40:51;14.70;99.90
3560;DHT22;1794;48.804;9.156;2022-07-01T09:43:19;14.50;99.90
3560;DHT22;1794;48.804;9.156;2022-07-01T09:45:54;14.40;99.90
3560;DHT22;1794;48.804;9.156;2022-07-01T09:48:22;14.60;99.90
3560;DHT22;1794;48.804;9.156;2022-07-01T09:50:51;14.40;99.90
3560;DHT22;1794;48.804;9.156;2022-07-01T09:53:18;14.50;99.90
3560;DHT22;1794;48.804;9.156;2022-07-01T09:55:44;14.70;99.90
3560;DHT22;1794;48.804;9.156;2022-07-01T09:58:11;14.90;99.90
3560;DHT22;1794;48.804;9.156;2022-07-01T10:00:38;14.90;99.90
3560;DHT22;1794;48.804;9.156;2022-07-01T10:03:06;15.00;99.90
3560;DHT22;1794;48.804;9.156;2022-07-01T10:05:38;15.10;99.90
3560;DHT22;1794;48.804;9.156;2022-07-01T10:08:23;15.00;99.90
3560;DHT22;1794;48.804;9.156;2022-07-01T10:11:01;15.30;99.90
3560;DHT22;1794;48.804;9.156;2022-07-01T10:13:31;15.80;99.90
3560;DHT22;1794;48.804;9.156;2022-07-01T10:16:01;15.60;99.90
3560;DHT22;1794;48.804;9.156;2022-07-01T10:18:29;15.90;99.90
3560;DHT22;1794;48.804;9.156;2022-07-01T10:20:57;16.00;99.90
3560;DHT22;1794;48.804;9.156;2022-07-01T10:23:36;16.20;99.90
3560;DHT22;1794;48.804;9.156;2022-07-01T10:26:04;16.60;99.90
3560;DHT22;1794;48.804;9.156;2022-07-01T10:28:41;16.90;99.90
3560;DHT22;1794;48.804;9.156;2022-07-01T10:31:09;17.20;99.90
3560;DHT22;1794;48.804;9.156;2022-07-01T10:33:44;16.90;99.90
3560;DHT22;1794;48.804;9.156;2022-07-01T10:36:16;16.80;99.90
3560;DHT22;1794;48.804;9.156;2022-07-01T10:39:12;17.60;99.90
3560;DHT22;1794;48.804;9.156;2022-07-01T10:41:41;18.50;1.00
3560;DHT22;1794;48.804;9.156;2022-07-01T10:44:10;19.20;1.00
3560;DHT22;1794;48.804;9.156;2022-07-01T10:46:38;19.60;1.00
3560;DHT22;1794;48.804;9.156;2022-07-01T10:49:07;19.40;1.00
3560;DHT22;1794;48.804;9.156;2022-07-01T10:51:48;19.10;1.00
3560;DHT22;1794;48.804;9.156;2022-07-01T10:54:45;19.00;1.00
3560;DHT22;1794;48.804;9.156;2022-07-01T10:57:34;19.10;1.00
3560;DHT22;1794;48.804;9.156;2022-07-01T11:00:27;19.30;1.00
3560;DHT22;1794;48.804;9.156;2022-07-01T11:03:06;18.70;15.90
3560;DHT22;1794;48.804;9.156;2022-07-01T11:05:34;18.80;1.00
3560;DHT22;1794;48.804;9.156;2022-07-01T11:08:03;18.90;1.00
3560;DHT22;1794;48.804;9.156;2022-07-01T11:10:32;18.30;1.00
3560;DHT22;1794;48.804;9.156;2022-07-01T11:12:59;18.30;1.00
3560;DHT22;1794;48.804;9.156;2022-07-01T11:15:26;18.80;1.00
3560;DHT22;1794;48.804;9.156;2022-07-01T11:17:55;19.10;1.00
3560;DHT22;1794;48.804;9.156;2022-07-01T11:20:23;18.50;1.00
3560;DHT22;1794;48.804;9.156;2022-07-01T11:22:52;18.30;1.00
3560;DHT22;1794;48.804;9.156;2022-07-01T11:25:21;17.80;24.00
3560;DHT22;1794;48.804;9.156;2022-07-01T11:27:51;16.90;99.90
3560;DHT22;1794;48.804;9.156;2022-07-01T11:30:19;16.30;99.90
3560;DHT22;1794;48.804;9.156;2022-07-01T11:32:49;16.40;99.90
3560;DHT22;1794;48.804;9.156;2022-07-01T11:35:18;16.80;99.90
3560;DHT22;1794;48.804;9.156;2022-07-01T11:38:10;17.00;99.90
3560;DHT22;1794;48.804;9.156;2022-07-01T11:40:57;18.70;39.10
3560;DHT22;1794;48.804;9.156;2022-07-01T11:43:26;20.70;1.00
3560;DHT22;1794;48.804;9.156;2022-07-01T11:45:54;21.30;1.00
3560;DHT22;1794;48.804;9.156;2022-07-01T11:48:36;20.30;1.00
3560;DHT22;1794;48.804;9.156;2022-07-01T11:51:09;20.40;1.00
3560;DHT22;1794;48.804;9.156;2022-07-01T11:53:37;20.50;1.00
3560;DHT22;1794;48.804;9.156;2022-07-01T11:56:04;20.70;1.00
3560;DHT22;1794;48.804;9.156;2022-07-01T11:58:43;22.10;1.00
3560;DHT22;1794;48.804;9.156;2022-07-01T12:01:11;22.20;99.90
3560;DHT22;1794;48.804;9.156;2022-07-01T12:03:37;21.20;1.00
3560;DHT22;1794;48.804;9.156;2022-07-01T12:06:05;21.70;1.00
3560;DHT22;1794;48.804;9.156;2022-07-01T12:08:31;21.40;99.90
3560;DHT22;1794;48.804;9.156;2022-07-01T12:10:58;22.00;99.90
3560;DHT22;1794;48.804;9.156;2022-07-01T12:13:27;21.10;1.00
3560;DHT22;1794;48.804;9.156;2022-07-01T12:16:05;21.10;1.00
3560;DHT22;1794;48.804;9.156;2022-07-01T12:18:32;23.10;99.90
3560;DHT22;1794;48.804;9.156;2022-07-01T12:20:59;23.70;1.00
3560;DHT22;1794;48.804;9.156;2022-07-01T12:23:26;23.70;70.80
3560;DHT22;1794;48.804;9.156;2022-07-01T12:25:53;23.50;99.90
3560;DHT22;1794;48.804;9.156;2022-07-01T12:28:25;23.40;1.00
3560;DHT22;1794;48.804;9.156;2022-07-01T12:31:03;22.90;1.00
3560;DHT22;1794;48.804;9.156;2022-07-01T12:33:32;22.80;1.00
3560;DHT22;1794;48.804;9.156;2022-07-01T12:36:01;22.50;99.90
3560;DHT22;1794;48.804;9.156;2022-07-01T12:38:28;22.20;1.00
3560;DHT22;1794;48.804;9.156;2022-07-01T12:40:55;21.80;99.90
3560;DHT22;1794;48.804;9.156;2022-07-01T12:43:23;21.60;99.90
3560;DHT22;1794;48.804;9.156;2022-07-01T12:45:50;19.40;99.90
3560;DHT22;1794;48.804;9.156;2022-07-01T12:48:18;18.40;1.00
3560;DHT22;1794;48.804;9.156;2022-07-01T12:50:45;18.00;1.00
3560;DHT22;1794;48.804;9.156;2022-07-01T12:53:17;18.20;1.00
3560;DHT22;1794;48.804;9.156;2022-07-01T12:55:45;18.60;1.00
3560;DHT22;1794;48.804;9.156;2022-07-01T12:58:14;18.60;1.00
3560;DHT22;1794;48.804;9.156;2022-07-01T13:00:43;18.60;1.00
3560;DHT22;1794;48.804;9.156;2022-07-01T13:03:10;18.70;1.00
3560;DHT22;1794;48.804;9.156;2022-07-01T13:05:39;18.70;1.00
3560;DHT22;1794;48.804;9.156;2022-07-01T13:08:07;18.80;1.00
3560;DHT22;1794;48.804;9.156;2022-07-01T13:10:34;18.70;1.00
3560;DHT22;1794;48.804;9.156;2022-07-01T13:13:03;19.80;1.00
3560;DHT22;1794;48.804;9.156;2022-07-01T13:15:31;18.50;1.00
3560;DHT22;1794;48.804;9.156;2022-07-01T13:17:57;18.40;1.00
3560;DHT22;1794;48.804;9.156;2022-07-01T13:20:24;19.10;1.00
3560;DHT22;1794;48.804;9.156;2022-07-01T13:22:52;19.60;1.00
3560;DHT22;1794;48.804;9.156;2022-07-01T13:25:20;19.80;1.00
3560;DHT22;1794;48.804;9.156;2022-07-01T13:27:47;18.90;1.00
3560;DHT22;1794;48.804;9.156;2022-07-01T13:30:14;19.10;1.00
3560;DHT22;1794;48.804;9.156;2022-07-01T13:32:42;18.90;1.00
3560;DHT22;1794;48.804;9.156;2022-07-01T13:35:10;19.50;1.00
3560;DHT22;1794;48.804;9.156;2022-07-01T13:37:37;18.90;1.00
3560;DHT22;1794;48.804;9.156;2022-07-01T13:40:07;18.60;1.00
3560;DHT22;1794;48.804;9.156;2022-07-01T13:42:34;19.00;1.00
3560;DHT22;1794;48.804;9.156;2022-07-01T13:45:00;18.50;1.00
3560;DHT22;1794;48.804;9.156;2022-07-01T13:47:27;18.20;1.00
3560;DHT22;1794;48.804;9.156;2022-07-01T13:49:54;18.60;1.00
3560;DHT22;1794;48.804;9.156;2022-07-01T13:52:22;18.40;1.00
3560;DHT22;1794;48.804;9.156;2022-07-01T13:54:48;17.90;1.00
3560;DHT22;1794;48.804;9.156;2022-07-01T13:57:17;18.30;1.00
3560;DHT22;1794;48.804;9.156;2022-07-01T13:59:44;19.00;1.00
3560;DHT22;1794;48.804;9.156;2022-07-01T14:02:11;19.70;1.00
3560;DHT22;1794;48.804;9.156;2022-07-01T14:04:38;20.80;1.00
3560;DHT22;1794;48.804;9.156;2022-07-01T14:07:05;21.40;1.00
3560;DHT22;1794;48.804;9.156;2022-07-01T14:09:32;21.20;1.00
3560;DHT22;1794;48.804;9.156;2022-07-01T14:11:59;21.20;1.00
3560;DHT22;1794;48.804;9.156;2022-07-01T14:14:28;20.20;1.00
3560;DHT22;1794;48.804;9.156;2022-07-01T14:16:54;18.90;1.00
3560;DHT22;1794;48.804;9.156;2022-07-01T14:19:21;19.30;1.00
3560;DHT22;1794;48.804;9.156;2022-07-01T14:21:48;19.70;1.00
3560;DHT22;1794;48.804;9.156;2022-07-01T14:24:14;20.70;1.00
3560;DHT22;1794;48.804;9.156;2022-07-01T14:26:41;21.20;1.00
3560;DHT22;1794;48.804;9.156;2022-07-01T14:29:08;21.10;99.90
3560;DHT22;1794;48.804;9.156;2022-07-01T14:31:36;20.60;1.00
3560;DHT22;1794;48.804;9.156;2022-07-01T14:34:03;20.80;1.00
3560;DHT22;1794;48.804;9.156;2022-07-01T14:36:30;19.60;1.00
3560;DHT22;1794;48.804;9.156;2022-07-01T14:38:56;19.20;1.00
3560;DHT22;1794;48.804;9.156;2022-07-01T14:41:23;18.80;1.00
3560;DHT22;1794;48.804;9.156;2022-07-01T14:43:50;19.20;1.00
3560;DHT22;1794;48.804;9.156;2022-07-01T14:46:17;18.90;1.00
3560;DHT22;1794;48.804;9.156;2022-07-01T14:48:45;19.10;1.00
3560;DHT22;1794;48.804;9.156;2022-07-01T14:51:12;18.70;1.00
3560;DHT22;1794;48.804;9.156;2022-07-01T14:53:38;19.10;1.00
3560;DHT22;1794;48.804;9.156;2022-07-01T14:56:05;19.50;1.00
3560;DHT22;1794;48.804;9.156;2022-07-01T14:58:32;19.90;1.00
3560;DHT22;1794;48.804;9.156;2022-07-01T15:00:58;19.00;1.00
3560;DHT22;1794;48.804;9.156;2022-07-01T15:03:26;18.60;1.00
3560;DHT22;1794;48.804;9.156;2022-07-01T15:05:54;18.50;1.00
3560;DHT22;1794;48.804;9.156;2022-07-01T15:08:21;18.50;1.00
3560;DHT22;1794;48.804;9.156;2022-07-01T15:10:48;18.60;1.00
3560;DHT22;1794;48.804;9.156;2022-07-01T15:13:15;19.10;1.00
3560;DHT22;1794;48.804;9.156;2022-07-01T15:15:41;19.30;1.00
3560;DHT22;1794;48.804;9.156;2022-07-01T15:18:08;19.80;1.00
3560;DHT22;1794;48.804;9.156;2022-07-01T15:20:35;20.10;1.00
3560;DHT22;1794;48.804;9.156;2022-07-01T15:23:03;20.50;1.00
3560;DHT22;1794;48.804;9.156;2022-07-01T15:25:29;20.80;1.00
3560;DHT22;1794;48.804;9.156;2022-07-01T15:27:56;20.20;1.00
3560;DHT22;1794;48.804;9.156;2022-07-01T15:30:23;19.60;1.00
3560;DHT22;1794;48.804;9.156;2022-07-01T15:32:50;19.20;1.00
3560;DHT22;1794;48.804;9.156;2022-07-01T15:35:16;18.90;1.00
3560;DHT22;1794;48.804;9.156;2022-07-01T15:37:43;19.10;1.00
3560;DHT22;1794;48.804;9.156;2022-07-01T15:40:11;19.20;1.00
3560;DHT22;1794;48.804;9.156;2022-07-01T15:42:38;19.60;1.00
3560;DHT22;1794;48.804;9.156;2022-07-01T15:45:06;20.30;1.00
3560;DHT22;1794;48.804;9.156;2022-07-01T15:47:33;20.60;1.00
3560;DHT22;1794;48.804;9.156;2022-07-01T15:50:18;19.80;1.00
3560;DHT22;1794;48.804;9.156;2022-07-01T15:52:45;20.10;1.00
3560;DHT22;1794;48.804;9.156;2022-07-01T15:55:14;19.80;1.00
3560;DHT22;1794;48.804;9.156;2022-07-01T15:57:42;19.10;1.00
3560;DHT22;1794;48.804;9.156;2022-07-01T16:00:10;19.00;1.00
3560;DHT22;1794;48.804;9.156;2022-07-01T16:02:37;19.00;1.00
3560;DHT22;1794;48.804;9.156;2022-07-01T16:05:05;19.10;1.00
3560;DHT22;1794;48.804;9.156;2022-07-01T16:07:33;19.30;1.00
3560;DHT22;1794;48.804;9.156;2022-07-01T16:10:05;19.90;1.00
3560;DHT22;1794;48.804;9.156;2022-07-01T16:12:35;20.40;1.00
3560;DHT22;1794;48.804;9.156;2022-07-01T16:15:04;19.40;1.00
3560;DHT22;1794;48.804;9.156;2022-07-01T16:17:34;19.30;1.00